sensor_id;sensor_type;location;lat;lon;timestamp;P1;durP1;ratioP1;P2;durP2;ratioP2
10458;SDS011;5277;48.722;8.736;2023-02-28T00:01:09;3.90;;;2.20;;
10458;SDS011;5277;48.722;8.736;2023-02-28T00:03:36;3.40;;;2.03;;
10458;SDS011;5277;48.722;8.736;2023-02-28T00:06:02;3.37;;;1.90;;
10458;SDS011;5277;48.722;8.736;2023-02-28T00:08:29;3.50;;;2.37;;
10458;SDS011;5277;48.722;8.736;2023-02-28T00:10:54;2.83;;;1.97;;
10458;SDS011;5277;48.722;8.736;2023-02-28T00:13:20;3.93;;;2.13;;
10458;SDS011;5277;48.722;8.736;2023-02-28T00:15:45;2.87;;;1.93;;
10458;SDS011;5277;48.722;8.736;2023-02-28T00:18:11;3.47;;;2.27;;
10458;SDS011;5277;48.722;8.736;2023-02-28T00:20:37;2.70;;;1.87;;
10458;SDS011;5277;48.722;8.736;2023-02-28T00:23:02;5.23;;;1.97;;
10458;SDS011;5277;48.722;8.736;2023-02-28T00:25:28;2.60;;;2.00;;
10458;SDS011;5277;48.722;8.736;2023-02-28T00:27:54;2.80;;;1.97;;
10458;SDS011;5277;48.722;8.736;2023-02-28T00:30:20;3.73;;;2.30;;
10458;SDS011;5277;48.722;8.736;2023-02-28T00:32:47;3.10;;;2.10;;
10458;SDS011;5277;48.722;8.736;2023-02-28T00:35:13;3.13;;;2.03;;
10458;SDS011;5277;48.722;8.736;2023-02-28T00:37:39;4.07;;;2.30;;
10458;SDS011;5277;48.722;8.736;2023-02-28T00:40:05;2.97;;;1.90;;
10458;SDS011;5277;48.722;8.736;2023-02-28T00:42:32;3.30;;;1.93;;
10458;SDS011;5277;48.722;8.736;2023-02-28T00:44:58;3.90;;;1.90;;
10458;SDS011;5277;48.722;8.736;2023-02-28T00:47:24;3.10;;;2.00;;
10458;SDS011;5277;48.722;8.736;2023-02-28T00:49:50;4.33;;;1.97;;
10458;SDS011;5277;48.722;8.736;2023-02-28T00:52:16;5.87;;;2.63;;
10458;SDS011;5277;48.722;8.736;2023-02-28T00:54:41;2.83;;;2.00;;
10458;SDS011;5277;48.722;8.736;2023-02-28T00:57:07;4.27;;;2.40;;
10458;SDS011;5277;48.722;8.736;2023-02-28T00:59:33;4.07;;;1.83;;
10458;SDS011;5277;48.722;8.736;2023-02-28T01:01:58;3.13;;;2.10;;
10458;SDS011;5277;48.722;8.736;2023-02-28T01:04:24;6.00;;;2.27;;
10458;SDS011;5277;48.722;8.736;2023-02-28T01:06:49;6.37;;;1.90;;
10458;SDS011;5277;48.722;8.736;2023-02-28T01:09:15;3.13;;;1.90;;
10458;SDS011;5277;48.722;8.736;2023-02-28T01:11:41;5.13;;;2.00;;
10458;SDS011;5277;48.722;8.736;2023-02-28T01:14:09;3.07;;;2.30;;
10458;SDS011;5277;48.722;8.736;2023-02-28T01:16:38;5.80;;;2.33;;
10458;SDS011;5277;48.722;8.736;2023-02-28T01:19:03;4.47;;;2.20;;
10458;SDS011;5277;48.722;8.736;2023-02-28T01:21:29;3.43;;;2.27;;
10458;SDS011;5277;48.722;8.736;2023-02-28T01:23:56;3.47;;;2.17;;
10458;SDS011;5277;48.722;8.736;2023-02-28T01:26:22;5.13;;;2.33;;
10458;SDS011;5277;48.722;8.736;2023-02-28T01:28:49;4.17;;;2.40;;
10458;SDS011;5277;48.722;8.736;2023-02-28T01:31:15;4.67;;;2.83;;
10458;SDS011;5277;48.722;8.736;2023-02-28T01:33:41;3.97;;;2.50;;
10458;SDS011;5277;48.722;8.736;2023-02-28T01:36:09;3.47;;;2.20;;
10458;SDS011;5277;48.722;8.736;2023-02-28T01:38:36;3.20;;;2.40;;
10458;SDS011;5277;48.722;8.736;2023-02-28T01:41:03;4.17;;;2.30;;
10458;SDS011;5277;48.722;8.736;2023-02-28T01:46:10;5.07;;;2.57;;
10458;SDS011;5277;48.722;8.736;2023-02-28T01:48:40;4.13;;;2.40;;
10458;SDS011;5277;48.722;8.736;2023-02-28T01:51:18;4.47;;;2.70;;
10458;SDS011;5277;48.722;8.736;2023-02-28T01:53:49;4.90;;;2.70;;
10458;SDS011;5277;48.722;8.736;2023-02-28T01:56:22;5.20;;;2.80;;
10458;SDS011;5277;48.722;8.736;2023-02-28T01:58:51;7.37;;;2.87;;
10458;SDS011;5277;48.722;8.736;2023-02-28T02:01:18;4.87;;;2.70;;
10458;SDS011;5277;48.722;8.736;2023-02-28T02:03:49;4.40;;;2.53;;
10458;SDS011;5277;48.722;8.736;2023-02-28T02:06:20;7.27;;;2.80;;
10458;SDS011;5277;48.722;8.736;2023-02-28T02:08:47;3.73;;;2.37;;
10458;SDS011;5277;48.722;8.736;2023-02-28T02:11:12;5.20;;;2.80;;
10458;SDS011;5277;48.722;8.736;2023-02-28T02:24:46;5.33;;;3.07;;
10458;SDS011;5277;48.722;8.736;2023-02-28T02:30:41;5.57;;;3.30;;
10458;SDS011;5277;48.722;8.736;2023-02-28T02:36:42;5.77;;;3.00;;
10458;SDS011;5277;48.722;8.736;2023-02-28T02:41:49;8.00;;;3.43;;
10458;SDS011;5277;48.722;8.736;2023-02-28T02:44:24;4.43;;;2.93;;
10458;SDS011;5277;48.722;8.736;2023-02-28T02:46:55;4.37;;;3.03;;
10458;SDS011;5277;48.722;8.736;2023-02-28T02:49:28;5.70;;;3.20;;
10458;SDS011;5277;48.722;8.736;2023-02-28T02:51:57;5.33;;;3.30;;
10458;SDS011;5277;48.722;8.736;2023-02-28T02:54:29;4.87;;;3.30;;
10458;SDS011;5277;48.722;8.736;2023-02-28T02:56:59;6.27;;;3.03;;
10458;SDS011;5277;48.722;8.736;2023-02-28T02:59:30;5.43;;;3.03;;
10458;SDS011;5277;48.722;8.736;2023-02-28T03:01:58;5.43;;;3.07;;
10458;SDS011;5277;48.722;8.736;2023-02-28T03:04:28;4.30;;;3.13;;
10458;SDS011;5277;48.722;8.736;2023-02-28T03:06:59;5.27;;;3.40;;
10458;SDS011;5277;48.722;8.736;2023-02-28T03:09:25;5.03;;;3.20;;
10458;SDS011;5277;48.722;8.736;2023-02-28T03:11:52;5.63;;;3.30;;
10458;SDS011;5277;48.722;8.736;2023-02-28T03:19:33;5.23;;;3.37;;
10458;SDS011;5277;48.722;8.736;2023-02-28T03:25:09;5.73;;;3.23;;
10458;SDS011;5277;48.722;8.736;2023-02-28T03:27:57;5.50;;;3.07;;
10458;SDS011;5277;48.722;8.736;2023-02-28T03:30:32;5.37;;;3.17;;
10458;SDS011;5277;48.722;8.736;2023-02-28T03:33:13;4.70;;;3.30;;
10458;SDS011;5277;48.722;8.736;2023-02-28T03:35:47;4.07;;;3.07;;
10458;SDS011;5277;48.722;8.736;2023-02-28T03:38:26;6.10;;;3.53;;
10458;SDS011;5277;48.722;8.736;2023-02-28T03:41:01;6.50;;;3.60;;
10458;SDS011;5277;48.722;8.736;2023-02-28T03:43:42;5.67;;;3.03;;
10458;SDS011;5277;48.722;8.736;2023-02-28T03:46:14;6.03;;;3.57;;
10458;SDS011;5277;48.722;8.736;2023-02-28T03:48:51;4.77;;;3.27;;
10458;SDS011;5277;48.722;8.736;2023-02-28T03:51:28;4.60;;;3.30;;
10458;SDS011;5277;48.722;8.736;2023-02-28T03:53:56;5.30;;;3.30;;
10458;SDS011;5277;48.722;8.736;2023-02-28T03:56:31;6.53;;;4.03;;
10458;SDS011;5277;48.722;8.736;2023-02-28T03:59:22;5.93;;;3.67;;
10458;SDS011;5277;48.722;8.736;2023-02-28T04:01:54;8.17;;;4.47;;
10458;SDS011;5277;48.722;8.736;2023-02-28T04:04:23;8.37;;;4.47;;
10458;SDS011;5277;48.722;8.736;2023-02-28T04:06:52;8.47;;;4.43;;
10458;SDS011;5277;48.722;8.736;2023-02-28T04:09:25;5.50;;;3.40;;
10458;SDS011;5277;48.722;8.736;2023-02-28T04:11:51;10.33;;;5.13;;
10458;SDS011;5277;48.722;8.736;2023-02-28T04:14:17;9.87;;;4.97;;
10458;SDS011;5277;48.722;8.736;2023-02-28T04:16:44;8.47;;;4.77;;
10458;SDS011;5277;48.722;8.736;2023-02-28T04:19:10;6.50;;;3.97;;
10458;SDS011;5277;48.722;8.736;2023-02-28T04:21:41;5.17;;;3.77;;
10458;SDS011;5277;48.722;8.736;2023-02-28T04:24:09;5.53;;;4.03;;
10458;SDS011;5277;48.722;8.736;2023-02-28T04:26:39;8.23;;;3.80;;
10458;SDS011;5277;48.722;8.736;2023-02-28T04:29:06;5.43;;;3.90;;
10458;SDS011;5277;48.722;8.736;2023-02-28T04:31:32;5.77;;;3.80;;
10458;SDS011;5277;48.722;8.736;2023-02-28T04:33:58;5.20;;;3.70;;
10458;SDS011;5277;48.722;8.736;2023-02-28T04:36:24;5.77;;;4.13;;
10458;SDS011;5277;48.722;8.736;2023-02-28T04:38:51;7.90;;;4.30;;
10458;SDS011;5277;48.722;8.736;2023-02-28T04:41:16;4.70;;;4.10;;
10458;SDS011;5277;48.722;8.736;2023-02-28T04:43:42;7.00;;;4.07;;
10458;SDS011;5277;48.722;8.736;2023-02-28T04:46:08;6.83;;;4.33;;
10458;SDS011;5277;48.722;8.736;2023-02-28T04:48:35;5.90;;;4.40;;
10458;SDS011;5277;48.722;8.736;2023-02-28T04:51:09;6.63;;;4.47;;
10458;SDS011;5277;48.722;8.736;2023-02-28T04:53:38;7.07;;;4.60;;
10458;SDS011;5277;48.722;8.736;2023-02-28T04:56:04;6.90;;;4.33;;
10458;SDS011;5277;48.722;8.736;2023-02-28T04:58:31;11.47;;;4.50;;
10458;SDS011;5277;48.722;8.736;2023-02-28T05:01:04;8.57;;;6.17;;
10458;SDS011;5277;48.722;8.736;2023-02-28T05:03:37;8.23;;;5.50;;
10458;SDS011;5277;48.722;8.736;2023-02-28T05:06:05;7.10;;;5.37;;
10458;SDS011;5277;48.722;8.736;2023-02-28T05:08:31;6.50;;;4.93;;
10458;SDS011;5277;48.722;8.736;2023-02-28T05:10:57;6.57;;;4.57;;
10458;SDS011;5277;48.722;8.736;2023-02-28T05:13:22;9.50;;;4.70;;
10458;SDS011;5277;48.722;8.736;2023-02-28T05:15:48;5.73;;;4.43;;
10458;SDS011;5277;48.722;8.736;2023-02-28T05:18:14;5.40;;;4.27;;
10458;SDS011;5277;48.722;8.736;2023-02-28T05:20:39;6.30;;;4.23;;
10458;SDS011;5277;48.722;8.736;2023-02-28T05:23:05;8.03;;;4.63;;
10458;SDS011;5277;48.722;8.736;2023-02-28T05:25:30;8.47;;;4.10;;
10458;SDS011;5277;48.722;8.736;2023-02-28T05:27:56;6.77;;;4.40;;
10458;SDS011;5277;48.722;8.736;2023-02-28T05:30:21;7.27;;;4.80;;
10458;SDS011;5277;48.722;8.736;2023-02-28T05:32:49;5.83;;;4.20;;
10458;SDS011;5277;48.722;8.736;2023-02-28T05:35:16;6.63;;;4.67;;
10458;SDS011;5277;48.722;8.736;2023-02-28T05:37:42;7.17;;;4.77;;
10458;SDS011;5277;48.722;8.736;2023-02-28T05:40:07;5.60;;;4.33;;
10458;SDS011;5277;48.722;8.736;2023-02-28T05:42:35;7.57;;;4.57;;
10458;SDS011;5277;48.722;8.736;2023-02-28T05:45:01;7.47;;;4.67;;
10458;SDS011;5277;48.722;8.736;2023-02-28T05:47:27;5.90;;;4.60;;
10458;SDS011;5277;48.722;8.736;2023-02-28T05:49:53;7.70;;;4.67;;
10458;SDS011;5277;48.722;8.736;2023-02-28T05:52:18;6.87;;;4.97;;
10458;SDS011;5277;48.722;8.736;2023-02-28T05:54:45;7.97;;;4.70;;
10458;SDS011;5277;48.722;8.736;2023-02-28T05:57:11;7.73;;;4.43;;
10458;SDS011;5277;48.722;8.736;2023-02-28T05:59:37;5.87;;;4.43;;
10458;SDS011;5277;48.722;8.736;2023-02-28T06:02:04;7.63;;;4.83;;
10458;SDS011;5277;48.722;8.736;2023-02-28T06:04:35;7.27;;;4.60;;
10458;SDS011;5277;48.722;8.736;2023-02-28T06:07:01;11.87;;;5.03;;
10458;SDS011;5277;48.722;8.736;2023-02-28T06:09:26;9.00;;;5.03;;
10458;SDS011;5277;48.722;8.736;2023-02-28T06:11:52;6.47;;;4.60;;
10458;SDS011;5277;48.722;8.736;2023-02-28T06:14:19;6.47;;;4.47;;
10458;SDS011;5277;48.722;8.736;2023-02-28T06:16:45;6.73;;;4.70;;
10458;SDS011;5277;48.722;8.736;2023-02-28T06:19:12;6.27;;;4.67;;
10458;SDS011;5277;48.722;8.736;2023-02-28T06:21:38;8.33;;;5.30;;
10458;SDS011;5277;48.722;8.736;2023-02-28T06:24:04;6.83;;;4.90;;
10458;SDS011;5277;48.722;8.736;2023-02-28T06:26:30;7.67;;;5.43;;
10458;SDS011;5277;48.722;8.736;2023-02-28T06:28:56;8.07;;;5.13;;
10458;SDS011;5277;48.722;8.736;2023-02-28T06:31:21;7.47;;;4.90;;
10458;SDS011;5277;48.722;8.736;2023-02-28T06:33:48;7.83;;;5.03;;
10458;SDS011;5277;48.722;8.736;2023-02-28T06:36:14;7.17;;;5.10;;
10458;SDS011;5277;48.722;8.736;2023-02-28T06:38:41;6.23;;;4.93;;
10458;SDS011;5277;48.722;8.736;2023-02-28T06:41:08;6.43;;;4.80;;
10458;SDS011;5277;48.722;8.736;2023-02-28T06:43:35;6.97;;;5.10;;
10458;SDS011;5277;48.722;8.736;2023-02-28T06:46:07;8.53;;;5.43;;
10458;SDS011;5277;48.722;8.736;2023-02-28T06:48:34;11.27;;;5.93;;
10458;SDS011;5277;48.722;8.736;2023-02-28T06:51:04;8.37;;;5.33;;
10458;SDS011;5277;48.722;8.736;2023-02-28T06:53:34;7.33;;;5.27;;
10458;SDS011;5277;48.722;8.736;2023-02-28T06:56:07;8.83;;;5.50;;
10458;SDS011;5277;48.722;8.736;2023-02-28T06:58:40;8.77;;;5.53;;
10458;SDS011;5277;48.722;8.736;2023-02-28T07:01:06;8.63;;;5.63;;
10458;SDS011;5277;48.722;8.736;2023-02-28T07:03:34;9.37;;;5.53;;
10458;SDS011;5277;48.722;8.736;2023-02-28T07:06:00;7.37;;;5.50;;
10458;SDS011;5277;48.722;8.736;2023-02-28T07:08:26;8.63;;;5.40;;
10458;SDS011;5277;48.722;8.736;2023-02-28T07:10:55;8.73;;;5.50;;
10458;SDS011;5277;48.722;8.736;2023-02-28T07:13:21;9.73;;;5.57;;
10458;SDS011;5277;48.722;8.736;2023-02-28T07:18:23;8.20;;;5.27;;
10458;SDS011;5277;48.722;8.736;2023-02-28T07:20:49;7.63;;;5.67;;
10458;SDS011;5277;48.722;8.736;2023-02-28T07:23:16;8.50;;;5.63;;
10458;SDS011;5277;48.722;8.736;2023-02-28T07:25:41;9.20;;;5.90;;
10458;SDS011;5277;48.722;8.736;2023-02-28T07:28:07;11.47;;;6.27;;
10458;SDS011;5277;48.722;8.736;2023-02-28T07:30:32;8.07;;;5.23;;
10458;SDS011;5277;48.722;8.736;2023-02-28T07:32:58;8.60;;;5.33;;
10458;SDS011;5277;48.722;8.736;2023-02-28T07:35:24;9.03;;;6.10;;
10458;SDS011;5277;48.722;8.736;2023-02-28T07:37:49;8.23;;;5.47;;
10458;SDS011;5277;48.722;8.736;2023-02-28T07:40:15;9.73;;;5.90;;
10458;SDS011;5277;48.722;8.736;2023-02-28T07:42:42;9.67;;;5.63;;
10458;SDS011;5277;48.722;8.736;2023-02-28T07:45:09;7.83;;;5.93;;
10458;SDS011;5277;48.722;8.736;2023-02-28T07:47:37;10.43;;;6.00;;
10458;SDS011;5277;48.722;8.736;2023-02-28T07:50:03;8.70;;;5.63;;
10458;SDS011;5277;48.722;8.736;2023-02-28T07:52:30;9.77;;;5.90;;
10458;SDS011;5277;48.722;8.736;2023-02-28T07:54:57;8.80;;;5.63;;
10458;SDS011;5277;48.722;8.736;2023-02-28T07:57:22;8.40;;;5.90;;
10458;SDS011;5277;48.722;8.736;2023-02-28T07:59:48;9.37;;;5.60;;
10458;SDS011;5277;48.722;8.736;2023-02-28T08:02:17;8.33;;;5.80;;
10458;SDS011;5277;48.722;8.736;2023-02-28T08:04:44;7.70;;;5.37;;
10458;SDS011;5277;48.722;8.736;2023-02-28T08:07:09;8.77;;;6.13;;
10458;SDS011;5277;48.722;8.736;2023-02-28T08:09:38;10.73;;;5.90;;
10458;SDS011;5277;48.722;8.736;2023-02-28T08:12:04;8.33;;;6.03;;
10458;SDS011;5277;48.722;8.736;2023-02-28T08:14:30;10.00;;;6.10;;
10458;SDS011;5277;48.722;8.736;2023-02-28T08:16:56;8.03;;;5.70;;
10458;SDS011;5277;48.722;8.736;2023-02-28T08:19:22;8.70;;;6.00;;
10458;SDS011;5277;48.722;8.736;2023-02-28T08:21:47;8.70;;;5.73;;
10458;SDS011;5277;48.722;8.736;2023-02-28T08:24:13;9.97;;;6.10;;
10458;SDS011;5277;48.722;8.736;2023-02-28T08:26:38;12.07;;;6.50;;
10458;SDS011;5277;48.722;8.736;2023-02-28T08:29:04;11.53;;;6.50;;
10458;SDS011;5277;48.722;8.736;2023-02-28T08:31:29;10.33;;;6.60;;
10458;SDS011;5277;48.722;8.736;2023-02-28T08:33:55;10.83;;;6.50;;
10458;SDS011;5277;48.722;8.736;2023-02-28T08:36:23;9.63;;;6.00;;
10458;SDS011;5277;48.722;8.736;2023-02-28T08:38:50;7.87;;;5.60;;
10458;SDS011;5277;48.722;8.736;2023-02-28T08:41:16;8.90;;;5.87;;
10458;SDS011;5277;48.722;8.736;2023-02-28T08:43:42;8.03;;;5.83;;
10458;SDS011;5277;48.722;8.736;2023-02-28T08:46:10;9.37;;;5.93;;
10458;SDS011;5277;48.722;8.736;2023-02-28T08:48:38;10.13;;;6.20;;
10458;SDS011;5277;48.722;8.736;2023-02-28T08:51:05;9.27;;;5.97;;
10458;SDS011;5277;48.722;8.736;2023-02-28T08:53:34;11.80;;;6.40;;
10458;SDS011;5277;48.722;8.736;2023-02-28T08:56:02;9.60;;;6.40;;
10458;SDS011;5277;48.722;8.736;2023-02-28T08:58:33;8.83;;;6.17;;
10458;SDS011;5277;48.722;8.736;2023-02-28T09:00:59;7.60;;;5.57;;
10458;SDS011;5277;48.722;8.736;2023-02-28T09:03:25;9.60;;;6.10;;
10458;SDS011;5277;48.722;8.736;2023-02-28T09:06:01;9.17;;;5.87;;
10458;SDS011;5277;48.722;8.736;2023-02-28T09:08:27;9.00;;;6.10;;
10458;SDS011;5277;48.722;8.736;2023-02-28T09:10:55;10.43;;;6.50;;
10458;SDS011;5277;48.722;8.736;2023-02-28T09:13:22;12.10;;;6.33;;
10458;SDS011;5277;48.722;8.736;2023-02-28T09:15:49;11.50;;;6.33;;
10458;SDS011;5277;48.722;8.736;2023-02-28T09:18:14;10.73;;;6.70;;
10458;SDS011;5277;48.722;8.736;2023-02-28T09:20:41;12.23;;;6.43;;
10458;SDS011;5277;48.722;8.736;2023-02-28T09:23:08;10.83;;;7.27;;
10458;SDS011;5277;48.722;8.736;2023-02-28T09:25:34;11.90;;;7.40;;
10458;SDS011;5277;48.722;8.736;2023-02-28T09:28:00;11.10;;;6.97;;
10458;SDS011;5277;48.722;8.736;2023-02-28T09:30:26;10.50;;;6.07;;
10458;SDS011;5277;48.722;8.736;2023-02-28T09:32:52;11.10;;;6.23;;
10458;SDS011;5277;48.722;8.736;2023-02-28T09:35:19;9.07;;;6.27;;
10458;SDS011;5277;48.722;8.736;2023-02-28T09:37:46;11.13;;;6.07;;
10458;SDS011;5277;48.722;8.736;2023-02-28T09:40:12;10.37;;;5.97;;
10458;SDS011;5277;48.722;8.736;2023-02-28T09:42:39;10.10;;;6.43;;
10458;SDS011;5277;48.722;8.736;2023-02-28T09:45:06;12.90;;;7.17;;
10458;SDS011;5277;48.722;8.736;2023-02-28T09:47:46;11.03;;;6.03;;
10458;SDS011;5277;48.722;8.736;2023-02-28T09:52:51;12.63;;;7.77;;
10458;SDS011;5277;48.722;8.736;2023-02-28T09:55:20;10.17;;;6.73;;
10458;SDS011;5277;48.722;8.736;2023-02-28T09:57:58;8.63;;;6.50;;
10458;SDS011;5277;48.722;8.736;2023-02-28T10:00:30;10.53;;;6.63;;
10458;SDS011;5277;48.722;8.736;2023-02-28T10:05:29;11.70;;;7.20;;
10458;SDS011;5277;48.722;8.736;2023-02-28T10:10:44;10.27;;;7.00;;
10458;SDS011;5277;48.722;8.736;2023-02-28T10:13:17;11.70;;;7.30;;
10458;SDS011;5277;48.722;8.736;2023-02-28T10:15:51;12.40;;;7.60;;
10458;SDS011;5277;48.722;8.736;2023-02-28T10:18:28;10.17;;;7.17;;
10458;SDS011;5277;48.722;8.736;2023-02-28T10:21:00;12.13;;;7.37;;
10458;SDS011;5277;48.722;8.736;2023-02-28T10:23:34;9.17;;;6.50;;
10458;SDS011;5277;48.722;8.736;2023-02-28T10:26:10;10.13;;;7.10;;
10458;SDS011;5277;48.722;8.736;2023-02-28T10:28:37;11.50;;;7.20;;
10458;SDS011;5277;48.722;8.736;2023-02-28T10:31:03;12.40;;;7.17;;
10458;SDS011;5277;48.722;8.736;2023-02-28T10:33:30;12.40;;;7.33;;
10458;SDS011;5277;48.722;8.736;2023-02-28T10:35:59;12.43;;;7.10;;
10458;SDS011;5277;48.722;8.736;2023-02-28T10:38:26;11.80;;;7.17;;
10458;SDS011;5277;48.722;8.736;2023-02-28T10:41:03;12.33;;;7.10;;
10458;SDS011;5277;48.722;8.736;2023-02-28T10:43:30;15.97;;;10.20;;
10458;SDS011;5277;48.722;8.736;2023-02-28T10:45:57;12.23;;;6.90;;
10458;SDS011;5277;48.722;8.736;2023-02-28T10:49:00;20.07;;;12.37;;
10458;SDS011;5277;48.722;8.736;2023-02-28T10:51:33;10.50;;;7.13;;
10458;SDS011;5277;48.722;8.736;2023-02-28T10:54:01;11.93;;;7.43;;
10458;SDS011;5277;48.722;8.736;2023-02-28T10:56:28;10.27;;;7.53;;
10458;SDS011;5277;48.722;8.736;2023-02-28T10:58:58;12.53;;;8.23;;
10458;SDS011;5277;48.722;8.736;2023-02-28T11:04:16;10.50;;;6.90;;
10458;SDS011;5277;48.722;8.736;2023-02-28T11:07:04;14.83;;;7.20;;
10458;SDS011;5277;48.722;8.736;2023-02-28T11:09:41;10.93;;;7.53;;
10458;SDS011;5277;48.722;8.736;2023-02-28T11:15:03;14.57;;;10.77;;
10458;SDS011;5277;48.722;8.736;2023-02-28T11:17:31;9.93;;;7.53;;
10458;SDS011;5277;48.722;8.736;2023-02-28T11:19:59;11.53;;;7.60;;
10458;SDS011;5277;48.722;8.736;2023-02-28T11:22:29;13.43;;;7.20;;
10458;SDS011;5277;48.722;8.736;2023-02-28T11:25:02;12.53;;;7.17;;
10458;SDS011;5277;48.722;8.736;2023-02-28T11:27:51;22.03;;;15.77;;
10458;SDS011;5277;48.722;8.736;2023-02-28T11:30:37;14.93;;;10.60;;
10458;SDS011;5277;48.722;8.736;2023-02-28T11:35:48;12.40;;;7.37;;
10458;SDS011;5277;48.722;8.736;2023-02-28T11:38:16;11.87;;;8.50;;
10458;SDS011;5277;48.722;8.736;2023-02-28T12:05:41;11.97;;;8.63;;
10458;SDS011;5277;48.722;8.736;2023-02-28T12:08:15;15.57;;;7.50;;
10458;SDS011;5277;48.722;8.736;2023-02-28T12:10:52;9.50;;;7.30;;
10458;SDS011;5277;48.722;8.736;2023-02-28T12:26:53;12.60;;;7.07;;
10458;SDS011;5277;48.722;8.736;2023-02-28T12:32:01;11.63;;;7.40;;
10458;SDS011;5277;48.722;8.736;2023-02-28T12:34:36;10.07;;;6.93;;
10458;SDS011;5277;48.722;8.736;2023-02-28T12:37:08;11.37;;;7.30;;
10458;SDS011;5277;48.722;8.736;2023-02-28T12:39:50;13.30;;;8.27;;
10458;SDS011;5277;48.722;8.736;2023-02-28T12:42:24;12.93;;;7.47;;
10458;SDS011;5277;48.722;8.736;2023-02-28T12:44:54;12.53;;;7.20;;
10458;SDS011;5277;48.722;8.736;2023-02-28T12:47:23;11.13;;;7.63;;
10458;SDS011;5277;48.722;8.736;2023-02-28T12:50:00;12.00;;;7.53;;
10458;SDS011;5277;48.722;8.736;2023-02-28T12:58:01;11.17;;;7.63;;
10458;SDS011;5277;48.722;8.736;2023-02-28T13:06:41;11.37;;;7.80;;
10458;SDS011;5277;48.722;8.736;2023-02-28T13:09:22;11.07;;;8.20;;
10458;SDS011;5277;48.722;8.736;2023-02-28T13:11:48;10.90;;;8.40;;
10458;SDS011;5277;48.722;8.736;2023-02-28T13:17:32;9.90;;;7.27;;
10458;SDS011;5277;48.722;8.736;2023-02-28T13:20:01;10.17;;;7.70;;
10458;SDS011;5277;48.722;8.736;2023-02-28T13:22:43;10.27;;;7.37;;
10458;SDS011;5277;48.722;8.736;2023-02-28T13:31:22;12.40;;;8.50;;
10458;SDS011;5277;48.722;8.736;2023-02-28T13:36:32;10.53;;;7.47;;
10458;SDS011;5277;48.722;8.736;2023-02-28T13:38:58;13.40;;;7.83;;
10458;SDS011;5277;48.722;8.736;2023-02-28T13:46:31;11.23;;;8.00;;
10458;SDS011;5277;48.722;8.736;2023-02-28T14:05:48;8.20;;;6.43;;
10458;SDS011;5277;48.722;8.736;2023-02-28T14:08:52;9.83;;;6.87;;
10458;SDS011;5277;48.722;8.736;2023-02-28T14:11:27;10.90;;;7.50;;
10458;SDS011;5277;48.722;8.736;2023-02-28T14:13:54;9.97;;;6.97;;
10458;SDS011;5277;48.722;8.736;2023-02-28T14:16:21;11.53;;;7.33;;
10458;SDS011;5277;48.722;8.736;2023-02-28T14:18:50;11.37;;;7.10;;
10458;SDS011;5277;48.722;8.736;2023-02-28T14:21:24;9.20;;;6.87;;
10458;SDS011;5277;48.722;8.736;2023-02-28T14:35:20;11.87;;;7.17;;
10458;SDS011;5277;48.722;8.736;2023-02-28T14:37:50;9.23;;;6.97;;
10458;SDS011;5277;48.722;8.736;2023-02-28T14:40:21;9.47;;;6.70;;
10458;SDS011;5277;48.722;8.736;2023-02-28T14:43:04;9.40;;;6.83;;
10458;SDS011;5277;48.722;8.736;2023-02-28T14:45:42;11.27;;;7.30;;
10458;SDS011;5277;48.722;8.736;2023-02-28T14:48:09;13.80;;;8.00;;
10458;SDS011;5277;48.722;8.736;2023-02-28T14:50:35;11.07;;;7.30;;
10458;SDS011;5277;48.722;8.736;2023-02-28T14:53:02;11.43;;;7.70;;
10458;SDS011;5277;48.722;8.736;2023-02-28T14:55:29;11.00;;;6.50;;
10458;SDS011;5277;48.722;8.736;2023-02-28T14:57:57;13.67;;;7.50;;
10458;SDS011;5277;48.722;8.736;2023-02-28T15:00:26;10.73;;;7.50;;
10458;SDS011;5277;48.722;8.736;2023-02-28T15:02:54;11.47;;;7.63;;
10458;SDS011;5277;48.722;8.736;2023-02-28T15:05:23;10.17;;;7.23;;
10458;SDS011;5277;48.722;8.736;2023-02-28T15:08:14;10.43;;;7.40;;
10458;SDS011;5277;48.722;8.736;2023-02-28T15:10:43;10.37;;;7.73;;
10458;SDS011;5277;48.722;8.736;2023-02-28T15:13:18;10.23;;;7.63;;
10458;SDS011;5277;48.722;8.736;2023-02-28T15:15:49;9.23;;;6.80;;
10458;SDS011;5277;48.722;8.736;2023-02-28T15:21:17;11.00;;;7.00;;
10458;SDS011;5277;48.722;8.736;2023-02-28T15:23:56;10.63;;;7.80;;
10458;SDS011;5277;48.722;8.736;2023-02-28T15:26:28;10.67;;;7.43;;
10458;SDS011;5277;48.722;8.736;2023-02-28T15:29:00;10.33;;;6.90;;
10458;SDS011;5277;48.722;8.736;2023-02-28T15:31:32;13.80;;;6.57;;
10458;SDS011;5277;48.722;8.736;2023-02-28T15:34:06;10.57;;;7.23;;
10458;SDS011;5277;48.722;8.736;2023-02-28T15:36:42;10.20;;;6.73;;
10458;SDS011;5277;48.722;8.736;2023-02-28T15:39:22;9.97;;;7.37;;
10458;SDS011;5277;48.722;8.736;2023-02-28T15:41:49;9.20;;;6.83;;
10458;SDS011;5277;48.722;8.736;2023-02-28T15:44:25;9.67;;;6.83;;
10458;SDS011;5277;48.722;8.736;2023-02-28T15:46:58;14.13;;;9.40;;
10458;SDS011;5277;48.722;8.736;2023-02-28T15:49:27;9.20;;;6.70;;
10458;SDS011;5277;48.722;8.736;2023-02-28T15:51:55;10.90;;;7.83;;
10458;SDS011;5277;48.722;8.736;2023-02-28T15:54:26;9.83;;;7.53;;
10458;SDS011;5277;48.722;8.736;2023-02-28T15:56:55;9.73;;;7.20;;
10458;SDS011;5277;48.722;8.736;2023-02-28T15:59:23;10.53;;;7.20;;
10458;SDS011;5277;48.722;8.736;2023-02-28T16:04:54;9.77;;;7.03;;
10458;SDS011;5277;48.722;8.736;2023-02-28T16:07:41;9.30;;;6.87;;
10458;SDS011;5277;48.722;8.736;2023-02-28T16:10:10;10.83;;;7.07;;
10458;SDS011;5277;48.722;8.736;2023-02-28T16:12:37;10.03;;;7.20;;
10458;SDS011;5277;48.722;8.736;2023-02-28T16:15:18;10.70;;;7.50;;
10458;SDS011;5277;48.722;8.736;2023-02-28T16:17:44;9.73;;;7.00;;
10458;SDS011;5277;48.722;8.736;2023-02-28T16:20:12;10.57;;;7.37;;
10458;SDS011;5277;48.722;8.736;2023-02-28T16:22:39;10.90;;;7.20;;
10458;SDS011;5277;48.722;8.736;2023-02-28T16:25:07;9.03;;;7.20;;
10458;SDS011;5277;48.722;8.736;2023-02-28T16:27:36;9.60;;;7.23;;
10458;SDS011;5277;48.722;8.736;2023-02-28T16:30:03;11.50;;;7.57;;
10458;SDS011;5277;48.722;8.736;2023-02-28T16:32:30;11.50;;;7.57;;
10458;SDS011;5277;48.722;8.736;2023-02-28T16:34:59;10.67;;;7.40;;
10458;SDS011;5277;48.722;8.736;2023-02-28T16:37:28;12.87;;;7.90;;
10458;SDS011;5277;48.722;8.736;2023-02-28T16:39:54;13.57;;;7.77;;
10458;SDS011;5277;48.722;8.736;2023-02-28T16:42:23;12.07;;;7.97;;
10458;SDS011;5277;48.722;8.736;2023-02-28T16:44:52;12.43;;;7.70;;
10458;SDS011;5277;48.722;8.736;2023-02-28T16:47:18;11.40;;;7.60;;
10458;SDS011;5277;48.722;8.736;2023-02-28T16:49:44;10.90;;;8.10;;
10458;SDS011;5277;48.722;8.736;2023-02-28T16:52:10;13.30;;;7.73;;
10458;SDS011;5277;48.722;8.736;2023-02-28T16:54:37;11.10;;;7.73;;
10458;SDS011;5277;48.722;8.736;2023-02-28T16:57:04;11.27;;;7.73;;
10458;SDS011;5277;48.722;8.736;2023-02-28T16:59:30;9.83;;;7.33;;
10458;SDS011;5277;48.722;8.736;2023-02-28T17:01:57;12.63;;;8.20;;
10458;SDS011;5277;48.722;8.736;2023-02-28T17:04:26;11.40;;;8.30;;
10458;SDS011;5277;48.722;8.736;2023-02-28T17:06:52;15.67;;;9.23;;
10458;SDS011;5277;48.722;8.736;2023-02-28T17:09:19;12.20;;;8.07;;
10458;SDS011;5277;48.722;8.736;2023-02-28T17:11:46;11.80;;;8.30;;
10458;SDS011;5277;48.722;8.736;2023-02-28T17:14:12;13.63;;;8.10;;
10458;SDS011;5277;48.722;8.736;2023-02-28T17:16:39;11.33;;;7.60;;
10458;SDS011;5277;48.722;8.736;2023-02-28T17:19:06;12.10;;;8.13;;
10458;SDS011;5277;48.722;8.736;2023-02-28T17:21:35;11.60;;;7.63;;
10458;SDS011;5277;48.722;8.736;2023-02-28T17:24:02;13.57;;;8.23;;
10458;SDS011;5277;48.722;8.736;2023-02-28T17:26:28;10.47;;;7.77;;
10458;SDS011;5277;48.722;8.736;2023-02-28T17:28:57;12.07;;;8.17;;
10458;SDS011;5277;48.722;8.736;2023-02-28T17:31:23;13.87;;;8.47;;
10458;SDS011;5277;48.722;8.736;2023-02-28T17:33:49;15.13;;;9.37;;
10458;SDS011;5277;48.722;8.736;2023-02-28T17:36:16;12.50;;;7.90;;
10458;SDS011;5277;48.722;8.736;2023-02-28T17:38:46;12.97;;;8.03;;
10458;SDS011;5277;48.722;8.736;2023-02-28T17:41:12;11.50;;;8.17;;